Brooklyn, New York
Current Conditions -  °F | °C
As of 1:51 AM on Saturday 25 Oct 2014 (Local Time) from KJFK Reporting Station
Scattered Clouds Scattered Clouds  
Wind Chill: 12°   Ceiling: Unl
Heat Index: 12°   Visibility: 10mi
Dew Point:   Wind: 8mph
Humidity: 53%   Direction: 310°NW
Pressure: 29.86"   Gusts: NA
Location:  40.64°N, 73.96°W
Report Text: KJFK 250551Z 31007KT 10SM SCT250 12/03 A2986 RMK AO2 SLP111 T01220028 10139 20111 53007
Loading
Personal Weather Stations






























Interactive Weather Map
Tropical Storm Tracking
New forecast layout! Learn more

10-Day Weather Forecast

Advertisements
Track Severe Weather on mobile